Change the Weather History Date:

Monday, September 16, 2013

  Actual Average Record
Temperature  
Mean Temperature 62 °F -  
Max Temperature 64 °F 64 °F 85 °F (2012)
Min Temperature 59 °F 46 °F 44 °F (2006)
Degree Days  
Heating Degree Days 4    
Growing Degree Days 12 (Base 50)    
Moisture  
Dew Point 60 °F    
Average Humidity 92    
Maximum Humidity 100    
Minimum Humidity 77    
Precipitation  
Precipitation 0.16 in 0.20 in - ()
Sea Level Pressure  
Sea Level Pressure 29.81 in    
Wind  
Wind Speed 8 mph ()    
Max Wind Speed 16 mph    
Max Gust Speed 28 mph    
Visibility 7.4 miles    
Events Rain    
Averages and records for this station are not official NWS values.
T = Trace of Precipitation, MM = Missing Value Source: Averaged Metar Reports

Daily Weather History Graph

Daily Weather History Graph

Search for Another Location

Airport or City:

Trip Planner

Search our weather history database for the weather conditions in past years. The results will help you decide how hot, cold, wet, or windy it might be!

Date:

Astronomy

Sep. 16, 2013 Rise Set
Actual Time 6:44 AM PDT 7:16 PM PDT
Civil Twilight 6:12 AM PDT 7:48 PM PDT
Nautical Twilight 5:34 AM PDT 8:26 PM PDT
Astronomical Twilight 4:54 AM PDT 9:05 PM PDT
Moon 5:38 PM PDT (9/16) 3:23 AM PDT (9/16)
Length of Visible Light 13h 35m
Length of Day
12h 31m
Waxing Gibbous, 91% of the Moon is Illuminated
Sep 16
Waxing Gibbous
Sep 19
Full
Sep 26
Last Quarter
Oct 4
New
Oct 11
First Quarter

Hourly Weather History & Observations

Time (PDT) Temp. Dew Point Humidity Pressure Visibility Wind Dir Wind Speed Gust Speed Precip Events Conditions
12:00 AM 62.6 °F 60.8 °F 94% 29.75 in 9.0 mi East 6.9 mph 18.4 mph N/A Rain Light Rain
12:21 AM 62.6 °F 60.8 °F 94% 29.77 in 9.0 mi West 4.6 mph - N/A Rain Light Rain
12:22 AM 62.6 °F 60.8 °F 94% 29.77 in 9.0 mi West 4.6 mph - N/A   Overcast
12:27 AM 62.6 °F 60.8 °F 94% 29.76 in 9.0 mi WNW 8.1 mph - N/A Rain Light Rain
12:37 AM 62.6 °F 60.8 °F 94% 29.77 in 9.0 mi WNW 10.4 mph 18.4 mph N/A   Overcast
12:46 AM 62.6 °F 60.8 °F 94% 29.77 in 9.0 mi WNW 4.6 mph 18.4 mph N/A   Overcast
12:49 AM 62.6 °F 60.8 °F 94% 29.77 in 9.0 mi WNW 11.5 mph - N/A   Overcast
12:51 AM 62.6 °F 60.8 °F 94% 29.77 in 9.0 mi WNW 6.9 mph - N/A   Overcast
12:52 AM 62.6 °F 60.8 °F 94% 29.77 in 9.0 mi NW 6.9 mph - N/A   Overcast
1:00 AM 62.6 °F 60.8 °F 94% 29.77 in 9.0 mi West 6.9 mph - N/A   Overcast
1:07 AM 62.6 °F 60.8 °F 94% 29.77 in 9.0 mi WSW 6.9 mph - N/A   Overcast
1:11 AM 62.6 °F 60.8 °F 94% 29.77 in 9.0 mi WSW 5.8 mph - N/A   Overcast
1:13 AM 62.6 °F 60.8 °F 94% 29.77 in 9.0 mi WSW 4.6 mph - N/A Rain Light Rain
1:20 AM 62.6 °F 60.8 °F 94% 29.77 in 7.0 mi WNW 4.6 mph - N/A Rain Light Rain
1:49 AM 62.6 °F 60.8 °F 94% 29.76 in 7.0 mi Variable 2.3 mph - N/A   Overcast
1:53 AM 62.6 °F 60.8 °F 94% 29.76 in 5.0 mi WSW 3.5 mph - N/A   Overcast
2:00 AM 62 °F 61 °F 95% 29.76 in - WSW 3.5 mph - -  
2:00 AM 62.6 °F 60.8 °F 94% 29.76 in 5.0 mi WSW 5.8 mph - N/A   Overcast
2:01 AM 62.6 °F 60.8 °F 94% 29.76 in 6.0 mi WSW 5.8 mph - N/A   Overcast
2:29 AM 62.6 °F 60.8 °F 94% 29.76 in 6.0 mi WSW 5.8 mph - N/A Rain Light Rain
2:30 AM 62.6 °F 60.8 °F 94% 29.76 in 5.0 mi SW 5.8 mph - N/A Rain Light Rain
2:41 AM 62.6 °F 60.8 °F 94% 29.76 in 2.5 mi SW 6.9 mph - N/A Rain Light Rain
2:51 AM 62.6 °F 60.8 °F 94% 29.77 in 3.0 mi SW 4.6 mph - N/A Rain Light Rain
3:00 AM 62.6 °F 60.8 °F 94% 29.76 in 4.0 mi WSW 5.8 mph - N/A Rain Light Rain
3:05 AM 62.6 °F 60.8 °F 94% 29.76 in 6.0 mi WSW 5.8 mph - N/A Rain Light Rain
3:09 AM 62.6 °F 60.8 °F 94% 29.76 in 7.0 mi WSW 6.9 mph - N/A   Overcast
3:10 AM 62.6 °F 60.8 °F 94% 29.76 in 7.0 mi WSW 6.9 mph - N/A   Overcast
3:22 AM 62.6 °F 60.8 °F 94% 29.76 in 9.0 mi WNW 8.1 mph - N/A Rain Light Rain
3:35 AM 62.6 °F 60.8 °F 94% 29.76 in 9.0 mi WNW 4.6 mph - N/A Rain Light Rain
3:36 AM 62.6 °F 60.8 °F 94% 29.76 in 9.0 mi WNW 6.9 mph - N/A   Overcast
3:37 AM 62.6 °F 60.8 °F 94% 29.76 in 9.0 mi West 6.9 mph - N/A   Overcast
3:42 AM 62.6 °F 60.8 °F 94% 29.76 in 9.0 mi West 8.1 mph - N/A   Overcast
3:43 AM 62.6 °F 60.8 °F 94% 29.76 in 9.0 mi West 5.8 mph - N/A   Overcast
3:52 AM 62.6 °F 60.8 °F 94% 29.76 in 9.0 mi WSW 5.8 mph - N/A   Overcast
4:00 AM 62.6 °F 60.8 °F 94% 29.75 in 9.0 mi West 8.1 mph - N/A   Overcast
4:11 AM 62.6 °F 60.8 °F 94% 29.75 in 5.0 mi WNW 9.2 mph - N/A   Overcast
4:16 AM 62.6 °F 60.8 °F 94% 29.75 in 4.0 mi NNW 8.1 mph - N/A Rain Light Rain
4:23 AM 62.6 °F 60.8 °F 94% 29.76 in 6.0 mi WNW 5.8 mph - N/A Rain Light Rain
4:35 AM 62.6 °F 60.8 °F 94% 29.76 in 5.0 mi Variable 6.9 mph - N/A Rain Light Rain
4:45 AM 62.6 °F 60.8 °F 94% 29.76 in 6.0 mi WNW 9.2 mph - N/A Rain Light Rain
4:54 AM 60.8 °F 60.8 °F 100% 29.76 in 5.0 mi WNW 9.2 mph 19.6 mph N/A Rain Light Rain
4:55 AM 60.8 °F 60.8 °F 100% 29.76 in 5.0 mi WNW 9.2 mph 19.6 mph N/A Rain Light Rain
5:00 AM 61 °F 60 °F 97% 29.76 in - West 9.2 mph - -  
5:00 AM 60.8 °F 59.0 °F 94% 29.76 in 3.0 mi WNW 11.5 mph 19.6 mph N/A Rain Light Rain
5:01 AM 60.8 °F 59.0 °F 94% 29.76 in 2.5 mi WNW 11.5 mph 19.6 mph N/A Rain Light Rain
6:00 AM 60.8 °F 59.0 °F 94% 29.79 in 2.2 mi WNW 15.0 mph 25.3 mph N/A Rain Light Rain
6:56 AM 59.0 °F 59.0 °F 100% 29.81 in 3.0 mi WNW 11.5 mph 20.7 mph N/A Rain Rain
7:00 AM 59.0 °F 59.0 °F 100% 29.81 in 4.0 mi WNW 16.1 mph 24.2 mph N/A Rain Light Rain
7:06 AM 59.0 °F 59.0 °F 100% 29.81 in 2.5 mi WNW 16.1 mph 24.2 mph N/A Rain Light Rain
7:23 AM 59.0 °F 59.0 °F 100% 29.82 in 3.0 mi WNW 13.8 mph 24.2 mph N/A Rain Light Rain
7:50 AM 59.0 °F 57.2 °F 94% 29.82 in 6.0 mi West 15.0 mph 27.6 mph N/A Rain Light Rain
8:00 AM 60 °F 59 °F 94% 29.82 in - WSW 13.8 mph - -  
8:00 AM 60.8 °F 57.2 °F 88% 29.83 in 7.0 mi West 13.8 mph 21.9 mph N/A Rain Light Rain
8:44 AM 60.8 °F 57.2 °F 88% 29.83 in 9.0 mi West 15.0 mph 20.7 mph N/A   Overcast
8:52 AM 60.8 °F 57.2 °F 88% 29.83 in 9.0 mi WSW 12.7 mph 20.7 mph N/A Rain Light Rain
9:00 AM 60.8 °F 59.0 °F 94% 29.83 in 9.0 mi WSW 12.7 mph 21.9 mph N/A Rain Light Rain
9:05 AM 60.8 °F 57.2 °F 88% 29.84 in 9.0 mi WSW 13.8 mph 19.6 mph N/A   Overcast
9:19 AM 60.8 °F 59.0 °F 94% 29.84 in 9.0 mi West 15.0 mph 20.7 mph N/A Rain Light Rain
9:36 AM 62.6 °F 57.2 °F 82% 29.83 in 9.0 mi West 15.0 mph 21.9 mph N/A   Overcast
9:38 AM 62.6 °F 59.0 °F 88% 29.84 in 9.0 mi West 15.0 mph 21.9 mph N/A Rain Light Rain
9:59 AM 62.6 °F 59.0 °F 88% 29.84 in 9.0 mi West 11.5 mph 18.4 mph N/A   Overcast
10:00 AM 62.6 °F 59.0 °F 88% 29.85 in 9.0 mi West 11.5 mph 18.4 mph N/A   Overcast
10:18 AM 62.6 °F 59.0 °F 88% 29.85 in 9.0 mi West 11.5 mph 21.9 mph N/A Rain Light Rain
10:30 AM 62.6 °F 59.0 °F 88% 29.85 in 9.0 mi WNW 9.2 mph 20.7 mph N/A   Overcast
11:00 AM 62.6 °F 59.0 °F 88% 29.85 in 9.0 mi WNW 10.4 mph 20.7 mph N/A   Overcast
11:15 AM 62.6 °F 59.0 °F 88% 29.85 in 5.0 mi West 8.1 mph 21.9 mph N/A   Overcast
11:18 AM 62.6 °F 59.0 °F 88% 29.86 in 5.0 mi West 9.2 mph 21.9 mph N/A Rain Light Rain
11:24 AM 62.6 °F 59.0 °F 88% 29.86 in 6.0 mi West 8.1 mph 19.6 mph N/A Rain Light Rain
11:31 AM 62.6 °F 59.0 °F 88% 29.86 in 9.0 mi West 8.1 mph 17.3 mph N/A   Overcast
11:45 AM 62.6 °F 59.0 °F 88% 29.86 in 6.0 mi West 10.4 mph 17.3 mph N/A Rain Light Rain
12:00 PM 62.6 °F 60.8 °F 94% 29.86 in 8.0 mi WNW 11.5 mph 20.7 mph N/A Rain Light Rain
12:35 PM 64.4 °F 60.8 °F 88% 29.87 in 9.0 mi WNW 11.5 mph 23.0 mph N/A   Overcast
12:36 PM 64.4 °F 60.8 °F 88% 29.87 in 9.0 mi WNW 13.8 mph 23.0 mph N/A Rain Light Rain
12:51 PM 64.4 °F 60.8 °F 88% 29.87 in 9.0 mi WNW 10.4 mph 19.6 mph N/A   Overcast
1:00 PM 64.4 °F 59.0 °F 83% 29.87 in 9.0 mi WNW 9.2 mph 21.9 mph N/A   Overcast
2:00 PM 63 °F 60 °F 85% 29.88 in - West 11.5 mph - -  
2:00 PM 62.6 °F 59.0 °F 88% 29.88 in 9.0 mi WNW 12.7 mph 24.2 mph N/A   Overcast
2:59 PM 62.6 °F 60.8 °F 94% 29.87 in 6.0 mi WNW 8.1 mph 19.6 mph N/A Rain Light Rain
3:00 PM 62.6 °F 60.8 °F 94% 29.87 in 6.0 mi WNW 9.2 mph 19.6 mph N/A Rain Light Rain
3:01 PM 62.6 °F 60.8 °F 94% 29.87 in 5.0 mi WNW 10.4 mph 19.6 mph N/A Rain Light Rain
3:06 PM 62.6 °F 59.0 °F 88% 29.87 in 7.0 mi WNW 12.7 mph 19.6 mph N/A Rain Light Rain
3:18 PM 62.6 °F 60.8 °F 94% 29.87 in 9.0 mi WNW 12.7 mph 20.7 mph N/A   Overcast
3:20 PM 62.6 °F 60.8 °F 94% 29.87 in 9.0 mi WNW 9.2 mph 19.6 mph N/A Rain Light Rain
3:38 PM 62.6 °F 59.0 °F 88% 29.87 in 9.0 mi WNW 15.0 mph 25.3 mph N/A   Overcast
4:00 PM 62.6 °F 59.0 °F 88% 29.87 in 9.0 mi West 12.7 mph 23.0 mph N/A   Overcast
5:00 PM 64 °F 58 °F 77% 29.87 in - West 9.2 mph - -  
5:00 PM 64.4 °F 59.0 °F 83% 29.87 in 9.0 mi WNW 9.2 mph 17.3 mph N/A   Overcast
6:00 PM 64.4 °F 57.2 °F 77% 29.86 in 9.0 mi West 11.5 mph 17.3 mph N/A   Overcast
7:00 PM 62.6 °F 57.2 °F 82% 29.86 in 9.0 mi WSW 11.5 mph - N/A   Overcast
7:54 PM 62.6 °F 57.2 °F 82% 29.88 in 9.0 mi SSW 4.6 mph - N/A   Overcast
8:00 PM 62.6 °F 59.0 °F 88% 29.88 in 9.0 mi West 5.8 mph - N/A   Overcast
8:59 PM 62.6 °F 59.0 °F 88% 29.88 in 9.0 mi WSW 8.1 mph - N/A   Overcast
9:00 PM 62.6 °F 59.0 °F 88% 29.88 in 9.0 mi WSW 9.2 mph - N/A   Overcast
10:00 PM 60.8 °F 57.2 °F 88% 29.89 in 9.0 mi SSW 5.8 mph - N/A   Overcast
10:18 PM 60.8 °F 57.2 °F 88% 29.89 in 9.0 mi SW 5.8 mph - N/A   Overcast
11:00 PM 61 °F 58 °F 86% 29.89 in - SW 5.8 mph - -  
11:00 PM 60.8 °F 57.2 °F 88% 29.89 in 9.0 mi WSW 6.9 mph - N/A   Overcast
11:23 PM 60.8 °F 57.2 °F 88% 29.89 in 9.0 mi SW 4.6 mph - N/A   Overcast